Terminal Aerodrome Forecast
Issued by NWS

Home | Current Version | Previous Version | Text Only | Print | Product List | Glossary On
Versions: 1 2 3 4 5 6 7 8 9 10 11 12 13 14 15
000
FTUS45 KABQ 261100
TAFFMN
TAF
KFMN 261136Z 2612/2712 04004KT P6SM OVC021
      TEMPO 2612/2616 5SM -RA BR OVC012
     FM261600 28008KT P6SM OVC025
     FM261900 29018G26KT P6SM VCSH BKN040
     FM270100 31011KT P6SM VCSH OVC050
     FM270600 35004KT P6SM BKN050=

USA.gov is the U.S. government's official web portal to all federal, state and local government web resources and services.